createdAt,value
2023-07-18T00:02:21.991Z,7.70
2023-07-18T00:07:30.769Z,7.25
2023-07-18T00:12:36.029Z,7.53
2023-07-18T00:17:42.394Z,8.40
2023-07-18T00:22:51.221Z,7.78
2023-07-18T00:27:56.614Z,8.40
2023-07-18T00:33:01.783Z,8.68
2023-07-18T00:38:09.533Z,9.20
2023-07-18T00:43:18.416Z,9.70
2023-07-18T00:48:23.982Z,10.45
2023-07-18T00:53:32.182Z,10.18
2023-07-18T00:58:37.419Z,10.98
2023-07-18T01:03:45.627Z,10.05
2023-07-18T01:08:54.186Z,9.60
2023-07-18T01:13:59.313Z,9.35
2023-07-18T01:19:04.557Z,9.55
2023-07-18T01:24:12.502Z,9.98
2023-07-18T01:29:17.650Z,10.05
2023-07-18T01:34:22.791Z,9.23
2023-07-18T01:39:30.617Z,8.30
2023-07-18T01:44:36.226Z,9.60
2023-07-18T01:49:41.444Z,10.35
2023-07-18T01:54:49.186Z,9.05
2023-07-18T01:59:54.312Z,10.05
2023-07-18T02:05:00.008Z,9.73
2023-07-18T02:10:08.895Z,10.82
2023-07-18T02:15:16.828Z,10.88
2023-07-18T02:20:22.142Z,10.65
2023-07-18T02:25:30.020Z,11.23
2023-07-18T02:30:35.415Z,11.82
2023-07-18T02:35:40.542Z,11.18
2023-07-18T02:40:49.219Z,12.13
2023-07-18T02:45:54.332Z,12.52
2023-07-18T02:50:59.439Z,11.52
2023-07-18T02:56:07.609Z,12.18
2023-07-18T03:01:13.378Z,11.02
2023-07-18T03:06:18.762Z,12.13
2023-07-18T03:11:27.186Z,13.00
2023-07-18T03:16:33.035Z,12.07
2023-07-18T03:21:38.246Z,11.65
2023-07-18T03:26:46.033Z,12.32
2023-07-18T03:31:51.203Z,12.13
2023-07-18T03:36:56.373Z,12.68
2023-07-18T03:42:04.185Z,12.60
2023-07-18T03:47:20.139Z,12.23
2023-07-18T03:52:26.191Z,11.98
2023-07-18T03:57:33.921Z,11.68
2023-07-18T04:02:39.154Z,11.00
2023-07-18T04:07:45.577Z,11.00
2023-07-18T04:12:53.363Z,12.13
2023-07-18T04:17:58.618Z,11.93
2023-07-18T04:23:03.866Z,12.90
2023-07-18T04:28:11.641Z,12.88
2023-07-18T04:33:16.900Z,11.75
2023-07-18T04:38:22.128Z,12.25
2023-07-18T04:43:30.094Z,11.63
2023-07-18T04:48:35.366Z,11.05
2023-07-18T04:53:40.467Z,11.20
2023-07-18T04:58:48.209Z,13.82
2023-07-18T05:03:57.882Z,11.68
2023-07-18T05:09:04.896Z,12.30
2023-07-18T05:14:12.729Z,12.57
2023-07-18T05:19:17.945Z,12.45
2023-07-18T05:24:23.344Z,11.75
2023-07-18T05:29:31.049Z,11.02
2023-07-18T05:34:37.042Z,10.75
2023-07-18T05:39:42.399Z,10.85
2023-07-18T05:44:50.251Z,10.15
2023-07-18T05:49:55.572Z,9.15
2023-07-18T05:55:00.699Z,8.57
2023-07-18T06:00:11.681Z,9.68
2023-07-18T06:05:16.791Z,6.57
2023-07-18T06:10:22.179Z,7.15
2023-07-18T06:15:30.226Z,7.38
2023-07-18T06:20:35.706Z,6.75
2023-07-18T06:25:41.020Z,7.68
2023-07-18T06:30:49.961Z,7.93
2023-07-18T06:35:56.154Z,6.78
2023-07-18T06:41:01.354Z,7.18
2023-07-18T06:46:09.212Z,7.03
2023-07-18T06:51:16.215Z,7.45
2023-07-18T06:56:21.579Z,6.43
2023-07-18T07:01:29.718Z,6.32
2023-07-18T07:06:35.567Z,6.38
2023-07-18T07:11:40.953Z,5.93
2023-07-18T07:16:48.693Z,6.35
2023-07-18T07:21:56.100Z,5.65
2023-07-18T07:27:01.287Z,5.93
2023-07-18T07:32:09.823Z,6.63
2023-07-18T07:37:15.034Z,5.75
2023-07-18T07:42:20.162Z,6.20
2023-07-18T07:47:27.882Z,6.93
2023-07-18T07:52:33.268Z,6.00
2023-07-18T07:57:38.368Z,4.97
2023-07-18T08:02:46.460Z,5.32
2023-07-18T08:07:52.187Z,4.43
2023-07-18T08:12:57.443Z,4.90
2023-07-18T08:18:05.252Z,4.80
2023-07-18T08:23:10.444Z,4.53
2023-07-18T08:28:15.640Z,4.25
2023-07-18T08:33:24.988Z,4.47
2023-07-18T08:38:30.178Z,4.75
2023-07-18T08:43:35.853Z,4.35
2023-07-18T08:48:44.079Z,4.47
2023-07-18T08:53:49.384Z,4.25
2023-07-18T08:58:54.731Z,4.70
2023-07-18T09:04:02.679Z,4.28
2023-07-18T09:09:18.288Z,5.05
2023-07-18T09:14:27.271Z,4.65
2023-07-18T09:19:43.388Z,4.20
2023-07-18T09:24:49.985Z,4.07
2023-07-18T09:29:56.206Z,3.83
2023-07-18T09:35:04.774Z,4.47
2023-07-18T09:40:11.384Z,3.90
2023-07-18T09:45:17.104Z,4.07
2023-07-18T09:50:25.040Z,4.55
2023-07-18T09:55:32.027Z,4.85
2023-07-18T10:00:37.222Z,3.88
2023-07-18T10:05:45.498Z,3.63
2023-07-18T10:11:04.333Z,4.03
2023-07-18T10:16:24.020Z,3.97
2023-07-18T10:21:36.443Z,3.83
2023-07-18T10:26:41.558Z,3.72
2023-07-18T10:31:46.762Z,3.58
2023-07-18T10:37:01.355Z,3.88
2023-07-18T10:42:10.317Z,3.42
2023-07-18T10:47:16.866Z,4.00
2023-07-18T10:52:25.600Z,4.38
2023-07-18T10:57:31.555Z,4.28
2023-07-18T11:02:40.488Z,2.75
2023-07-18T11:07:49.983Z,3.20
2023-07-18T11:12:56.713Z,4.20
2023-07-18T11:18:01.982Z,4.05
2023-07-18T11:23:10.433Z,3.33
2023-07-18T11:28:17.166Z,3.50
2023-07-18T11:33:24.575Z,4.90
2023-07-18T11:38:36.705Z,3.83
2023-07-18T11:43:42.725Z,3.70
2023-07-18T11:48:50.237Z,3.10
2023-07-18T11:53:59.158Z,2.95
2023-07-18T11:59:04.442Z,2.85
2023-07-18T12:04:15.865Z,2.92
2023-07-18T12:09:23.753Z,3.35
2023-07-18T12:14:29.138Z,3.25
2023-07-18T12:24:42.211Z,2.70
2023-07-18T12:29:47.476Z,3.55
2023-07-18T12:40:00.280Z,3.28
2023-07-18T12:45:05.572Z,2.90
2023-07-18T12:55:20.164Z,3.67
2023-07-18T13:00:25.454Z,3.15
2023-07-18T13:05:31.673Z,3.67
2023-07-18T13:10:40.162Z,2.95
2023-07-18T13:15:46.103Z,3.10
2023-07-18T13:20:51.325Z,2.90
2023-07-18T13:25:59.213Z,3.33
2023-07-18T13:31:04.802Z,3.38
2023-07-18T13:36:10.142Z,3.05
2023-07-18T13:46:23.549Z,2.90
2023-07-18T13:51:30.915Z,2.85
2023-07-18T13:56:38.627Z,3.33
2023-07-18T14:01:43.893Z,3.42
2023-07-18T14:11:56.588Z,2.90
2023-07-18T14:17:01.787Z,3.38
2023-07-18T14:22:07.624Z,3.42
2023-07-18T14:27:16.957Z,3.28
2023-07-18T14:32:22.244Z,3.05
2023-07-18T14:37:27.480Z,3.60
2023-07-18T14:42:35.244Z,3.22
2023-07-18T14:47:40.467Z,3.33
2023-07-18T14:52:45.609Z,3.10
2023-07-18T14:57:53.472Z,3.20
2023-07-18T15:02:58.692Z,3.22
2023-07-18T15:08:05.172Z,2.72
2023-07-18T15:13:12.994Z,3.55
2023-07-18T15:18:18.411Z,2.88
2023-07-18T15:23:23.576Z,3.00
2023-07-18T15:28:32.171Z,3.33
2023-07-18T15:33:38.035Z,3.25
2023-07-18T15:38:46.175Z,2.20
2023-07-18T15:43:54.668Z,2.90
2023-07-18T15:48:59.843Z,3.13
2023-07-18T15:54:05.779Z,3.05
2023-07-18T15:59:13.657Z,3.70
2023-07-18T16:04:18.921Z,2.20
2023-07-18T16:09:29.368Z,3.55
2023-07-18T16:14:37.456Z,3.30
2023-07-18T16:19:45.406Z,3.95
2023-07-18T16:24:50.903Z,3.20
2023-07-18T16:29:58.669Z,3.67
2023-07-18T16:35:03.935Z,3.40
2023-07-18T16:40:11.562Z,3.47
2023-07-18T16:45:19.819Z,3.25
2023-07-18T16:50:25.187Z,3.28
2023-07-18T16:55:30.760Z,3.20
2023-07-18T17:00:39.782Z,2.83
2023-07-18T17:05:44.975Z,3.60
2023-07-18T17:10:50.211Z,3.55
2023-07-18T17:15:58.118Z,3.25
2023-07-18T17:21:03.733Z,3.65
2023-07-18T17:26:10.443Z,3.88
2023-07-18T17:31:18.263Z,3.60
2023-07-18T17:36:23.591Z,3.70
2023-07-18T17:41:28.816Z,3.90
2023-07-18T17:46:36.864Z,4.07
2023-07-18T17:51:42.254Z,3.33
2023-07-18T17:56:47.586Z,3.85
2023-07-18T18:01:55.845Z,6.22
2023-07-18T18:07:01.005Z,3.88
2023-07-18T18:12:06.324Z,4.35
2023-07-18T18:17:13.983Z,5.22
2023-07-18T18:22:19.164Z,3.90
2023-07-18T18:27:24.405Z,4.30
2023-07-18T18:32:32.345Z,4.90
2023-07-18T18:37:37.519Z,5.15
2023-07-18T18:42:42.768Z,5.03
2023-07-18T18:47:50.637Z,4.35
2023-07-18T18:52:55.816Z,3.97
2023-07-18T18:58:01.306Z,4.47
2023-07-18T19:03:09.375Z,4.40
2023-07-18T19:08:14.652Z,4.45
2023-07-18T19:13:21.101Z,6.03
2023-07-18T19:18:28.851Z,11.68
2023-07-18T19:23:34.043Z,17.45
2023-07-18T19:28:39.278Z,12.32
2023-07-18T19:33:47.111Z,7.82
2023-07-18T19:38:55.183Z,7.90
2023-07-18T19:44:00.484Z,6.72
2023-07-18T19:49:08.318Z,7.43
2023-07-18T19:54:13.444Z,5.68
2023-07-18T19:59:18.667Z,7.03
2023-07-18T20:04:26.712Z,6.65
2023-07-18T20:09:32.032Z,7.18
2023-07-18T20:14:37.201Z,7.10
2023-07-18T20:19:45.920Z,6.07
2023-07-18T20:24:51.136Z,6.10
2023-07-18T20:29:56.470Z,5.80
2023-07-18T20:35:04.226Z,6.53
2023-07-18T20:40:11.115Z,6.68
2023-07-18T20:45:16.798Z,6.07
2023-07-18T20:50:25.007Z,6.85
2023-07-18T20:55:30.178Z,6.70
2023-07-18T21:00:35.371Z,6.68
2023-07-18T21:05:43.266Z,6.32
2023-07-18T21:10:48.662Z,6.72
2023-07-18T21:15:53.965Z,6.13
2023-07-18T21:21:01.934Z,6.22
2023-07-18T21:26:07.249Z,6.00
2023-07-18T21:31:12.471Z,4.50
2023-07-18T21:36:20.887Z,4.78
2023-07-18T21:41:26.235Z,3.85
2023-07-18T21:46:31.687Z,4.20
2023-07-18T21:51:41.520Z,5.40
2023-07-18T21:56:46.743Z,4.82
2023-07-18T22:01:51.801Z,4.72
2023-07-18T22:06:59.531Z,5.38
2023-07-18T22:12:04.773Z,4.95
2023-07-18T22:17:10.129Z,4.35
2023-07-18T22:22:17.862Z,4.72
2023-07-18T22:27:22.945Z,4.85
2023-07-18T22:32:30.591Z,5.40
2023-07-18T22:37:40.179Z,4.63
2023-07-18T22:42:45.266Z,5.60
2023-07-18T22:47:50.477Z,6.00
2023-07-18T22:53:00.432Z,6.15
2023-07-18T22:58:06.506Z,5.75
2023-07-18T23:03:12.491Z,5.68
2023-07-18T23:08:20.214Z,5.28
2023-07-18T23:13:25.301Z,5.63
2023-07-18T23:18:30.490Z,5.70
2023-07-18T23:23:38.291Z,5.20
2023-07-18T23:28:43.502Z,4.20
2023-07-18T23:33:48.727Z,6.00
2023-07-18T23:38:56.466Z,4.65
2023-07-18T23:44:01.628Z,4.57
2023-07-18T23:49:07.046Z,4.88
2023-07-18T23:54:14.842Z,5.00
2023-07-18T23:59:20.288Z,5.43
